Terminal Aerodrome Forecast
Issued by NWS

Current Version | Previous Version | Text Only | Print | Product List | Glossary On
Versions: 1 2 3 4 5 6 7 8 9 10 11 12 13 14 15 16 17 18 19 20
238
FTUS44 KEPZ 181741 CCA
TAFLRU
TAF COR
KLRU 181741Z 1818/1918 24007KT 6SM BR FEW030 SCT060 SCT220
      TEMPO 1818/1819 BKN010
     FM181900 25009KT P6SM FEW030 SCT060 SCT220
     FM182100 26012G18KT P6SM SCT050 SCT120 BKN250=

USA.gov is the U.S. government's official web portal to all federal, state and local government web resources and services.